createdAt,value
2023-05-20T00:00:36.277Z,1014.59
2023-05-20T00:01:37.238Z,1014.52
2023-05-20T00:02:37.855Z,1014.54
2023-05-20T00:03:36.894Z,1014.58
2023-05-20T00:04:37.343Z,1014.55
2023-05-20T00:05:38.797Z,1014.56
2023-05-20T00:06:37.327Z,1014.53
2023-05-20T00:07:37.502Z,1014.57
2023-05-20T00:08:37.663Z,1014.59
2023-05-20T00:09:37.843Z,1014.53
2023-05-20T00:10:38.017Z,1014.54
2023-05-20T00:11:38.248Z,1014.58
2023-05-20T00:12:38.428Z,1014.58
2023-05-20T00:13:39.322Z,1014.54
2023-05-20T00:14:38.790Z,1014.56
2023-05-20T00:15:38.950Z,1014.55
2023-05-20T00:16:39.154Z,1014.57
2023-05-20T00:17:39.356Z,1014.57
2023-05-20T00:18:39.637Z,1014.56
2023-05-20T00:19:40.745Z,1014.59
2023-05-20T00:20:40.785Z,1014.57
2023-05-20T00:21:40.751Z,1014.55
2023-05-20T00:22:41.735Z,1014.56
2023-05-20T00:23:40.602Z,1014.60
2023-05-20T00:24:40.767Z,1014.58
2023-05-20T00:25:42.246Z,1014.59
2023-05-20T00:26:41.153Z,1014.57
2023-05-20T00:27:41.338Z,1014.57
2023-05-20T00:28:41.503Z,1014.58
2023-05-20T00:29:42.747Z,1014.63
2023-05-20T00:30:41.890Z,1014.64
2023-05-20T00:31:42.621Z,1014.66
2023-05-20T00:32:42.263Z,1014.59
2023-05-20T00:33:42.344Z,1014.64
2023-05-20T00:34:42.525Z,1014.60
2023-05-20T00:35:42.693Z,1014.65
2023-05-20T00:36:42.842Z,1014.61
2023-05-20T00:37:43.007Z,1014.62
2023-05-20T00:38:43.198Z,1014.65
2023-05-20T00:39:44.244Z,1014.60
2023-05-20T00:40:44.116Z,1014.60
2023-05-20T00:41:44.250Z,1014.60
2023-05-20T00:42:43.805Z,1014.59
2023-05-20T00:43:43.994Z,1014.57
2023-05-20T00:44:44.140Z,1014.61
2023-05-20T00:45:44.833Z,1014.57
2023-05-20T00:46:45.294Z,1014.59
2023-05-20T00:47:44.699Z,1014.55
2023-05-20T00:48:45.751Z,1014.58
2023-05-20T00:49:45.018Z,1014.53
2023-05-20T00:50:45.189Z,1014.52
2023-05-20T00:51:46.249Z,1014.52
2023-05-20T00:52:45.476Z,1014.49
2023-05-20T00:53:46.249Z,1014.47
2023-05-20T00:54:45.773Z,1014.47
2023-05-20T00:55:46.777Z,1014.48
2023-05-20T00:56:46.148Z,1014.47
2023-05-20T00:57:47.291Z,1014.42
2023-05-20T00:58:46.441Z,1014.43
2023-05-20T00:59:46.619Z,1014.47
2023-05-20T01:00:46.819Z,1014.41
2023-05-20T01:01:47.708Z,1014.43
2023-05-20T01:02:47.869Z,1014.46
2023-05-20T01:03:47.354Z,1014.41
2023-05-20T01:04:48.262Z,1014.46
2023-05-20T01:05:49.250Z,1014.44
2023-05-20T01:06:47.947Z,1014.39
2023-05-20T01:07:48.034Z,1014.39
2023-05-20T01:08:48.219Z,1014.33
2023-05-20T01:09:48.411Z,1014.39
2023-05-20T01:10:49.246Z,1014.40
2023-05-20T01:11:48.763Z,1014.43
2023-05-20T01:12:48.940Z,1014.40
2023-05-20T01:13:49.125Z,1014.35
2023-05-20T01:14:49.317Z,1014.43
2023-05-20T01:15:49.598Z,1014.42
2023-05-20T01:16:49.683Z,1014.33
2023-05-20T01:17:49.893Z,1014.44
2023-05-20T01:18:50.151Z,1014.43
2023-05-20T01:19:50.792Z,1014.42
2023-05-20T01:20:50.475Z,1014.38
2023-05-20T01:21:50.673Z,1014.42
2023-05-20T01:22:50.881Z,1014.40
2023-05-20T01:23:52.254Z,1014.45
2023-05-20T01:24:52.253Z,1014.44
2023-05-20T01:25:51.423Z,1014.41
2023-05-20T01:26:51.630Z,1014.43
2023-05-20T01:27:51.821Z,1014.42
2023-05-20T01:28:52.057Z,1014.37
2023-05-20T01:29:52.248Z,1014.35
2023-05-20T01:30:52.503Z,1014.42
2023-05-20T01:31:52.664Z,1014.39
2023-05-20T01:32:52.867Z,1014.42
2023-05-20T01:33:52.902Z,1014.48
2023-05-20T01:34:53.113Z,1014.42
2023-05-20T01:35:53.316Z,1014.38
2023-05-20T01:36:53.492Z,1014.33
2023-05-20T01:37:54.265Z,1014.41
2023-05-20T01:38:53.795Z,1014.36
2023-05-20T01:39:53.976Z,1014.41
2023-05-20T01:40:54.159Z,1014.42
2023-05-20T01:41:54.332Z,1014.42
2023-05-20T01:42:54.523Z,1014.38
2023-05-20T01:43:54.698Z,1014.40
2023-05-20T01:44:54.912Z,1014.37
2023-05-20T01:45:55.079Z,1014.38
2023-05-20T01:46:56.301Z,1014.41
2023-05-20T01:47:55.476Z,1014.43
2023-05-20T01:48:56.141Z,1014.36
2023-05-20T01:49:55.787Z,1014.37
2023-05-20T01:50:56.765Z,1014.44
2023-05-20T01:51:56.154Z,1014.42
2023-05-20T01:52:56.819Z,1014.41
2023-05-20T01:53:56.506Z,1014.41
2023-05-20T01:54:56.672Z,1014.44
2023-05-20T01:55:56.830Z,1014.42
2023-05-20T01:56:56.997Z,1014.32
2023-05-20T01:57:57.129Z,1014.29
2023-05-20T01:58:57.304Z,1014.34
2023-05-20T01:59:57.449Z,1014.36
2023-05-20T02:00:57.627Z,1014.31
2023-05-20T02:01:58.310Z,1014.32
2023-05-20T02:02:58.777Z,1014.27
2023-05-20T02:03:59.135Z,1014.33
2023-05-20T02:04:58.276Z,1014.28
2023-05-20T02:05:58.467Z,1014.27
2023-05-20T02:06:59.267Z,1014.26
2023-05-20T02:07:58.776Z,1014.31
2023-05-20T02:08:59.811Z,1014.25
2023-05-20T02:09:59.766Z,1014.24
2023-05-20T02:10:59.289Z,1014.24
2023-05-20T02:11:59.837Z,1014.26
2023-05-20T02:13:00.278Z,1014.27
2023-05-20T02:14:01.279Z,1014.28
2023-05-20T02:15:00.019Z,1014.32
2023-05-20T02:16:00.217Z,1014.34
2023-05-20T02:17:01.278Z,1014.39
2023-05-20T02:18:00.619Z,1014.37
2023-05-20T02:19:00.759Z,1014.35
2023-05-20T02:20:01.776Z,1014.37
2023-05-20T02:21:01.777Z,1014.37
2023-05-20T02:22:02.146Z,1014.40
2023-05-20T02:23:02.280Z,1014.40
2023-05-20T02:24:01.589Z,1014.37
2023-05-20T02:25:01.701Z,1014.38
2023-05-20T02:26:01.797Z,1014.45
2023-05-20T02:27:01.975Z,1014.34
2023-05-20T02:28:02.179Z,1014.37
2023-05-20T02:29:02.364Z,1014.37
2023-05-20T02:30:02.531Z,1014.37
2023-05-20T02:31:02.745Z,1014.40
2023-05-20T02:32:02.909Z,1014.39
2023-05-20T02:33:03.104Z,1014.39
2023-05-20T02:34:03.217Z,1014.39
2023-05-20T02:35:03.411Z,1014.41
2023-05-20T02:36:04.320Z,1014.41
2023-05-20T02:37:03.833Z,1014.34
2023-05-20T02:38:03.863Z,1014.33
2023-05-20T02:39:04.788Z,1014.34
2023-05-20T02:40:04.349Z,1014.37
2023-05-20T02:41:04.632Z,1014.37
2023-05-20T02:42:04.757Z,1014.35
2023-05-20T02:43:04.991Z,1014.34
2023-05-20T02:44:05.828Z,1014.33
2023-05-20T02:45:05.398Z,1014.40
2023-05-20T02:46:06.338Z,1014.40
2023-05-20T02:47:06.782Z,1014.36
2023-05-20T02:48:05.976Z,1014.44
2023-05-20T02:49:06.040Z,1014.38
2023-05-20T02:50:07.288Z,1014.37
2023-05-20T02:51:06.389Z,1014.45
2023-05-20T02:52:07.287Z,1014.50
2023-05-20T02:53:07.308Z,1014.52
2023-05-20T02:54:07.792Z,1014.52
2023-05-20T02:55:07.783Z,1014.55
2023-05-20T02:56:07.292Z,1014.52
2023-05-20T02:57:08.284Z,1014.43
2023-05-20T02:58:08.290Z,1014.46
2023-05-20T02:59:08.326Z,1014.43
2023-05-20T03:00:07.985Z,1014.47
2023-05-20T03:01:08.841Z,1014.45
2023-05-20T03:02:08.419Z,1014.52
2023-05-20T03:03:08.729Z,1014.48
2023-05-20T03:04:09.823Z,1014.51
2023-05-20T03:05:09.042Z,1014.52
2023-05-20T03:06:09.321Z,1014.48
2023-05-20T03:07:10.405Z,1014.52
2023-05-20T03:08:10.157Z,1014.50
2023-05-20T03:09:11.301Z,1014.50
2023-05-20T03:10:10.027Z,1014.45
2023-05-20T03:11:10.213Z,1014.43
2023-05-20T03:12:11.292Z,1014.44
2023-05-20T03:13:10.849Z,1014.44
2023-05-20T03:14:10.759Z,1014.43
2023-05-20T03:15:10.937Z,1014.40
2023-05-20T03:16:11.121Z,1014.45
2023-05-20T03:17:11.298Z,1014.35
2023-05-20T03:18:11.456Z,1014.42
2023-05-20T03:19:11.671Z,1014.32
2023-05-20T03:20:11.786Z,1014.33
2023-05-20T03:21:12.791Z,1014.39
2023-05-20T03:22:12.057Z,1014.34
2023-05-20T03:23:12.229Z,1014.37
2023-05-20T03:24:12.438Z,1014.41
2023-05-20T03:25:12.643Z,1014.34
2023-05-20T03:26:12.813Z,1014.34
2023-05-20T03:27:14.294Z,1014.33
2023-05-20T03:28:14.806Z,1014.38
2023-05-20T03:29:13.434Z,1014.41
2023-05-20T03:30:13.637Z,1014.40
2023-05-20T03:31:13.908Z,1014.42
2023-05-20T03:32:14.073Z,1014.42
2023-05-20T03:33:14.277Z,1014.34
2023-05-20T03:34:15.333Z,1014.42
2023-05-20T03:35:14.657Z,1014.39
2023-05-20T03:36:14.739Z,1014.40
2023-05-20T03:37:15.831Z,1014.41
2023-05-20T03:38:15.854Z,1014.38
2023-05-20T03:39:15.284Z,1014.38
2023-05-20T03:40:15.484Z,1014.38
2023-05-20T03:41:15.704Z,1014.36
2023-05-20T03:42:15.879Z,1014.37
2023-05-20T03:43:16.833Z,1014.33
2023-05-20T03:44:16.219Z,1014.32
2023-05-20T03:45:16.383Z,1014.29
2023-05-20T03:46:16.594Z,1014.29
2023-05-20T03:47:17.485Z,1014.26
2023-05-20T03:48:16.997Z,1014.33
2023-05-20T03:49:17.184Z,1014.27
2023-05-20T03:50:17.374Z,1014.26
2023-05-20T03:51:17.585Z,1014.23
2023-05-20T03:52:17.764Z,1014.24
2023-05-20T03:53:17.944Z,1014.24
2023-05-20T03:54:18.165Z,1014.17
2023-05-20T03:55:19.301Z,1014.18
2023-05-20T03:56:18.570Z,1014.20
2023-05-20T03:57:18.776Z,1014.18
2023-05-20T03:58:18.931Z,1014.16
2023-05-20T03:59:19.079Z,1014.17
2023-05-20T04:00:19.213Z,1014.12
2023-05-20T04:01:19.377Z,1014.12
2023-05-20T04:02:19.668Z,1014.15
2023-05-20T04:03:20.543Z,1014.13
2023-05-20T04:04:20.067Z,1014.12
2023-05-20T04:05:20.357Z,1014.16
2023-05-20T04:06:20.252Z,1014.16
2023-05-20T04:07:20.396Z,1014.20
2023-05-20T04:08:20.539Z,1014.12
2023-05-20T04:09:20.679Z,1014.07
2023-05-20T04:10:20.939Z,1014.18
2023-05-20T04:11:21.836Z,1014.12
2023-05-20T04:12:21.198Z,1014.16
2023-05-20T04:13:21.332Z,1014.12
2023-05-20T04:14:23.303Z,1014.10
2023-05-20T04:15:21.688Z,1014.17
2023-05-20T04:16:21.907Z,1014.09
2023-05-20T04:17:22.093Z,1014.12
2023-05-20T04:18:22.852Z,1014.12
2023-05-20T04:19:23.415Z,1014.08
2023-05-20T04:20:22.554Z,1014.11
2023-05-20T04:21:22.691Z,1014.10
2023-05-20T04:22:23.338Z,1014.00
2023-05-20T04:23:23.094Z,1013.99
2023-05-20T04:24:25.806Z,1014.01
2023-05-20T04:25:23.409Z,1014.00
2023-05-20T04:26:23.551Z,1014.01
2023-05-20T04:27:23.699Z,1014.02
2023-05-20T04:28:23.856Z,1013.99
2023-05-20T04:29:24.035Z,1013.93
2023-05-20T04:30:24.201Z,1013.95
2023-05-20T04:31:24.371Z,1013.98
2023-05-20T04:32:25.346Z,1013.87
2023-05-20T04:33:24.751Z,1013.87
2023-05-20T04:34:24.879Z,1013.89
2023-05-20T04:35:25.033Z,1013.86
2023-05-20T04:36:25.811Z,1013.82
2023-05-20T04:37:25.334Z,1013.80
2023-05-20T04:38:28.228Z,1013.83
2023-05-20T04:39:25.646Z,1013.83
2023-05-20T04:40:25.875Z,1013.83
2023-05-20T04:41:25.927Z,1013.86
2023-05-20T04:42:26.120Z,1013.83
2023-05-20T04:43:26.311Z,1013.80
2023-05-20T04:44:26.482Z,1013.77
2023-05-20T04:45:26.647Z,1013.79
2023-05-20T04:46:26.913Z,1013.80
2023-05-20T04:47:27.688Z,1013.78
2023-05-20T04:48:27.809Z,1013.72
2023-05-20T04:49:28.308Z,1013.67
2023-05-20T04:50:27.441Z,1013.66
2023-05-20T04:51:27.615Z,1013.69
2023-05-20T04:52:48.792Z,1013.74
2023-05-20T04:53:28.936Z,1013.64
2023-05-20T04:54:28.818Z,1013.65
2023-05-20T04:55:28.226Z,1013.62
2023-05-20T04:56:28.382Z,1013.64
2023-05-20T04:57:28.571Z,1013.67
2023-05-20T04:58:28.724Z,1013.67
2023-05-20T04:59:30.815Z,1013.65
2023-05-20T05:00:29.054Z,1013.67
2023-05-20T05:01:29.337Z,1013.66
2023-05-20T05:02:29.445Z,1013.64
2023-05-20T05:03:30.498Z,1013.56
2023-05-20T05:04:29.905Z,1013.62
2023-05-20T05:05:30.002Z,1013.58
2023-05-20T05:06:30.193Z,1013.53
2023-05-20T05:07:30.347Z,1013.50
2023-05-20T05:08:30.535Z,1013.59
2023-05-20T05:09:31.777Z,1013.52
2023-05-20T05:10:30.948Z,1013.48
2023-05-20T05:11:31.842Z,1013.47
2023-05-20T05:12:31.824Z,1013.49
2023-05-20T05:13:31.397Z,1013.51
2023-05-20T05:14:31.605Z,1013.49
2023-05-20T05:15:32.848Z,1013.43
2023-05-20T05:16:32.071Z,1013.41
2023-05-20T05:17:32.168Z,1013.49
2023-05-20T05:18:32.375Z,1013.41
2023-05-20T05:19:32.586Z,1013.37
2023-05-20T05:20:32.764Z,1013.31
2023-05-20T05:21:33.822Z,1013.27
2023-05-20T05:22:33.105Z,1013.23
2023-05-20T05:23:33.876Z,1013.24
2023-05-20T05:24:33.553Z,1013.24
2023-05-20T05:25:33.841Z,1013.25
2023-05-20T05:26:34.827Z,1013.27
2023-05-20T05:27:34.075Z,1013.22
2023-05-20T05:28:34.229Z,1013.22
2023-05-20T05:29:35.331Z,1013.25
2023-05-20T05:30:35.326Z,1013.24
2023-05-20T05:31:34.738Z,1013.22
2023-05-20T05:32:35.054Z,1013.22
2023-05-20T05:33:35.182Z,1013.17
2023-05-20T05:34:35.265Z,1013.10
2023-05-20T05:35:35.592Z,1013.10
2023-05-20T05:36:35.646Z,1013.05
2023-05-20T05:37:35.845Z,1013.08
2023-05-20T05:38:35.982Z,1013.07
2023-05-20T05:39:36.149Z,1013.07
2023-05-20T05:40:36.289Z,1013.03
2023-05-20T05:41:36.448Z,1013.00
2023-05-20T05:42:36.601Z,1012.96
2023-05-20T05:43:37.333Z,1012.98
2023-05-20T05:44:36.976Z,1012.95
2023-05-20T05:45:37.829Z,1013.01
2023-05-20T05:46:37.336Z,1012.95
2023-05-20T05:47:38.377Z,1012.99
2023-05-20T05:48:38.371Z,1012.96
2023-05-20T05:49:38.875Z,1013.02
2023-05-20T05:50:37.996Z,1013.01
2023-05-20T05:51:39.014Z,1013.06
2023-05-20T05:52:40.328Z,1012.99
2023-05-20T05:53:39.363Z,1013.02
2023-05-20T05:54:38.881Z,1012.91
2023-05-20T05:55:40.695Z,1012.85
2023-05-20T05:56:40.348Z,1012.95
2023-05-20T05:57:40.330Z,1012.83
2023-05-20T05:58:39.465Z,1012.79
2023-05-20T05:59:40.330Z,1012.78
2023-05-20T06:00:40.864Z,1012.76
2023-05-20T06:01:40.884Z,1012.73
2023-05-20T06:02:40.338Z,1012.70
2023-05-20T06:03:41.393Z,1012.69
2023-05-20T06:04:40.515Z,1012.65
2023-05-20T06:05:40.690Z,1012.71
2023-05-20T06:06:42.193Z,1012.67
2023-05-20T06:07:41.824Z,1012.65
2023-05-20T06:08:41.824Z,1012.70
2023-05-20T06:09:41.329Z,1012.66
2023-05-20T06:10:41.519Z,1012.69
2023-05-20T06:11:42.216Z,1012.76
2023-05-20T06:12:41.880Z,1012.71
2023-05-20T06:13:42.071Z,1012.67
2023-05-20T06:14:42.258Z,1012.67
2023-05-20T06:15:43.825Z,1012.55
2023-05-20T06:16:42.587Z,1012.53
2023-05-20T06:17:43.701Z,1012.54
2023-05-20T06:18:43.965Z,1012.49
2023-05-20T06:19:43.206Z,1012.50
2023-05-20T06:20:43.943Z,1012.55
2023-05-20T06:21:43.446Z,1012.47
2023-05-20T06:22:43.613Z,1012.41
2023-05-20T06:23:44.390Z,1012.44
2023-05-20T06:24:43.923Z,1012.45
2023-05-20T06:25:44.087Z,1012.37
2023-05-20T06:26:44.254Z,1012.42
2023-05-20T06:27:44.456Z,1012.35
2023-05-20T06:28:44.600Z,1012.30
2023-05-20T06:29:45.353Z,1012.32
2023-05-20T06:30:44.907Z,1012.40
2023-05-20T06:31:45.839Z,1012.30
2023-05-20T06:32:45.257Z,1012.35
2023-05-20T06:33:45.385Z,1012.29
2023-05-20T06:34:46.337Z,1012.31
2023-05-20T06:35:45.712Z,1012.26
2023-05-20T06:36:45.898Z,1012.27
2023-05-20T06:37:46.166Z,1012.27
2023-05-20T06:38:46.200Z,1012.22
2023-05-20T06:39:46.384Z,1012.23
2023-05-20T06:40:46.547Z,1012.22
2023-05-20T06:41:46.748Z,1012.17
2023-05-20T06:42:47.029Z,1012.18
2023-05-20T06:43:48.047Z,1012.18
2023-05-20T06:44:47.154Z,1012.20
2023-05-20T06:45:47.852Z,1012.20
2023-05-20T06:46:48.903Z,1012.19
2023-05-20T06:47:47.703Z,1012.08
2023-05-20T06:48:47.917Z,1012.09
2023-05-20T06:49:48.110Z,1012.11
2023-05-20T06:50:48.886Z,1012.07
2023-05-20T06:51:48.935Z,1012.07
2023-05-20T06:52:48.601Z,1012.09
2023-05-20T06:53:48.787Z,1012.06
2023-05-20T06:54:48.951Z,1012.05
2023-05-20T06:55:49.122Z,1011.98
2023-05-20T06:56:49.856Z,1012.03
2023-05-20T06:57:49.516Z,1011.96
2023-05-20T06:58:51.348Z,1012.00
2023-05-20T06:59:49.823Z,1011.97
2023-05-20T07:00:50.911Z,1011.95
2023-05-20T07:01:50.898Z,1011.98
2023-05-20T07:02:50.348Z,1011.95
2023-05-20T07:03:50.552Z,1011.94
2023-05-20T07:04:50.756Z,1011.88
2023-05-20T07:05:51.848Z,1011.86
2023-05-20T07:06:51.097Z,1011.91
2023-05-20T07:07:51.287Z,1011.89
2023-05-20T07:08:52.400Z,1011.89
2023-05-20T07:09:53.353Z,1011.85
2023-05-20T07:10:52.841Z,1011.87
2023-05-20T07:11:52.028Z,1011.86
2023-05-20T07:12:52.222Z,1011.83
2023-05-20T07:13:52.426Z,1011.81
2023-05-20T07:14:53.352Z,1011.79
2023-05-20T07:15:53.432Z,1011.84
2023-05-20T07:16:54.858Z,1011.73
2023-05-20T07:17:53.157Z,1011.68
2023-05-20T07:18:53.887Z,1011.68
2023-05-20T07:19:53.454Z,1011.74
2023-05-20T07:20:53.634Z,1011.69
2023-05-20T07:21:54.395Z,1011.82
2023-05-20T07:22:54.894Z,1011.74
2023-05-20T07:23:56.353Z,1011.78
2023-05-20T07:24:55.353Z,1011.78
2023-05-20T07:25:56.351Z,1011.73
2023-05-20T07:26:56.216Z,1011.71
2023-05-20T07:27:54.841Z,1011.78
2023-05-20T07:28:55.962Z,1011.75
2023-05-20T07:29:55.857Z,1011.72
2023-05-20T07:30:56.855Z,1011.69
2023-05-20T07:31:56.926Z,1011.73
2023-05-20T07:32:56.384Z,1011.69
2023-05-20T07:33:55.961Z,1011.72
2023-05-20T07:34:56.156Z,1011.74
2023-05-20T07:35:56.406Z,1011.65
2023-05-20T07:36:57.797Z,1011.71
2023-05-20T07:37:56.691Z,1011.72
2023-05-20T07:39:03.566Z,1011.75
2023-05-20T07:39:59.110Z,1011.75
2023-05-20T07:40:57.242Z,1011.76
2023-05-20T07:41:58.359Z,1011.66
2023-05-20T07:42:57.507Z,1011.70
2023-05-20T07:43:58.410Z,1011.64
2023-05-20T07:44:58.401Z,1011.65
2023-05-20T07:45:58.134Z,1011.67
2023-05-20T07:46:58.332Z,1011.66
2023-05-20T07:47:59.406Z,1011.68
2023-05-20T07:48:59.397Z,1011.70
2023-05-20T07:49:58.929Z,1011.69
2023-05-20T07:50:59.129Z,1011.72
2023-05-20T07:52:02.063Z,1011.70
2023-05-20T07:52:59.515Z,1011.67
2023-05-20T07:54:00.384Z,1011.74
2023-05-20T07:54:59.805Z,1011.77
2023-05-20T07:55:59.971Z,1011.71
2023-05-20T07:57:00.864Z,1011.76
2023-05-20T07:58:01.873Z,1011.73
2023-05-20T07:59:02.228Z,1011.76
2023-05-20T08:00:00.749Z,1011.71
2023-05-20T08:01:01.920Z,1011.77
2023-05-20T08:02:01.937Z,1011.83
2023-05-20T08:03:02.197Z,1011.75
2023-05-20T08:04:01.501Z,1011.69
2023-05-20T08:05:01.936Z,1011.74
2023-05-20T08:06:01.777Z,1011.71
2023-05-20T08:07:02.889Z,1011.68
2023-05-20T08:08:02.230Z,1011.69
2023-05-20T08:09:02.432Z,1011.71
2023-05-20T08:10:02.634Z,1011.79
2023-05-20T08:11:02.821Z,1011.81
2023-05-20T08:12:03.036Z,1011.76
2023-05-20T08:13:03.900Z,1011.79
2023-05-20T08:14:04.863Z,1011.70
2023-05-20T08:15:03.642Z,1011.73
2023-05-20T08:16:03.884Z,1011.73
2023-05-20T08:17:04.127Z,1011.71
2023-05-20T08:18:04.935Z,1011.71
2023-05-20T08:19:04.456Z,1011.70
2023-05-20T08:20:04.549Z,1011.76
2023-05-20T08:21:04.787Z,1011.79
2023-05-20T08:22:04.987Z,1011.75
2023-05-20T08:23:06.867Z,1011.75
2023-05-20T08:24:05.924Z,1011.74
2023-05-20T08:25:05.601Z,1011.73
2023-05-20T08:26:05.769Z,1011.69
2023-05-20T08:27:05.960Z,1011.78
2023-05-20T08:28:06.935Z,1011.75
2023-05-20T08:29:06.335Z,1011.79
2023-05-20T08:30:07.537Z,1011.76
2023-05-20T08:31:06.707Z,1011.79
2023-05-20T08:32:06.941Z,1011.82
2023-05-20T08:33:07.979Z,1011.79
2023-05-20T08:34:07.363Z,1011.81
2023-05-20T08:35:08.423Z,1011.92
2023-05-20T08:36:07.700Z,1011.91
2023-05-20T08:37:07.889Z,1011.90
2023-05-20T08:38:08.132Z,1011.89
2023-05-20T08:39:08.207Z,1011.86
2023-05-20T08:40:09.001Z,1011.92
2023-05-20T08:41:08.515Z,1011.91
2023-05-20T08:42:10.298Z,1011.92
2023-05-20T08:43:08.935Z,1011.92
2023-05-20T08:44:09.098Z,1011.95
2023-05-20T08:45:09.257Z,1011.93
2023-05-20T08:46:09.426Z,1011.82
2023-05-20T08:47:09.633Z,1011.91
2023-05-20T08:48:10.003Z,1011.83
2023-05-20T08:49:09.997Z,1011.84
2023-05-20T08:50:10.181Z,1011.86
2023-05-20T08:51:10.360Z,1011.85
2023-05-20T08:52:10.530Z,1011.79
2023-05-20T08:53:10.704Z,1011.89
2023-05-20T08:54:11.867Z,1011.79
2023-05-20T08:55:11.006Z,1011.77
2023-05-20T08:56:11.219Z,1011.79
2023-05-20T08:57:11.432Z,1011.79
2023-05-20T08:58:11.605Z,1011.79
2023-05-20T08:59:13.872Z,1011.79
2023-05-20T09:00:12.922Z,1011.72
2023-05-20T09:01:13.374Z,1011.73
2023-05-20T09:02:12.496Z,1011.75
2023-05-20T09:03:12.719Z,1011.70
2023-05-20T09:04:12.817Z,1011.72
2023-05-20T09:05:13.186Z,1011.64
2023-05-20T09:06:13.166Z,1011.63
2023-05-20T09:07:13.345Z,1011.63
2023-05-20T09:08:14.436Z,1011.59
2023-05-20T09:09:13.739Z,1011.61
2023-05-20T09:10:14.442Z,1011.58
2023-05-20T09:11:14.878Z,1011.57
2023-05-20T09:12:14.318Z,1011.56
2023-05-20T09:13:14.493Z,1011.54
2023-05-20T09:14:15.472Z,1011.51
2023-05-20T09:15:14.888Z,1011.58
2023-05-20T09:16:16.403Z,1011.54
2023-05-20T09:17:17.765Z,1011.51
2023-05-20T09:18:15.388Z,1011.53
2023-05-20T09:19:15.609Z,1011.54
2023-05-20T09:20:16.430Z,1011.46
2023-05-20T09:21:15.961Z,1011.48
2023-05-20T09:22:16.748Z,1011.43
2023-05-20T09:23:16.894Z,1011.40
2023-05-20T09:24:17.892Z,1011.41
2023-05-20T09:25:16.658Z,1011.41
2023-05-20T09:26:16.811Z,1011.48
2023-05-20T09:27:18.380Z,1011.42
2023-05-20T09:28:17.142Z,1011.43
2023-05-20T09:29:17.924Z,1011.42
2023-05-20T09:30:17.456Z,1011.43
2023-05-20T09:31:18.454Z,1011.35
2023-05-20T09:32:17.854Z,1011.36
2023-05-20T09:33:18.025Z,1011.35
2023-05-20T09:34:18.933Z,1011.33
2023-05-20T09:35:18.929Z,1011.25
2023-05-20T09:36:18.600Z,1011.30
2023-05-20T09:37:18.830Z,1011.27
2023-05-20T09:38:18.981Z,1011.30
2023-05-20T09:39:19.952Z,1011.31
2023-05-20T09:40:19.940Z,1011.28
2023-05-20T09:41:19.608Z,1011.28
2023-05-20T09:42:19.834Z,1011.25
2023-05-20T09:43:19.999Z,1011.23
2023-05-20T09:44:20.221Z,1011.25
2023-05-20T09:45:20.433Z,1011.21
2023-05-20T09:46:21.478Z,1011.18
2023-05-20T09:47:20.882Z,1011.12
2023-05-20T09:48:21.153Z,1011.08
2023-05-20T09:49:21.272Z,1011.04
2023-05-20T09:50:21.391Z,1010.98
2023-05-20T09:51:23.382Z,1010.98
2023-05-20T09:52:21.777Z,1010.97
2023-05-20T09:53:22.442Z,1010.93
2023-05-20T09:54:22.770Z,1010.85
2023-05-20T09:55:22.292Z,1010.75
2023-05-20T09:56:23.432Z,1010.79
2023-05-20T09:57:24.405Z,1010.76
2023-05-20T09:58:23.453Z,1010.71
2023-05-20T09:59:23.111Z,1010.61
2023-05-20T10:00:23.280Z,1010.57
2023-05-20T10:01:25.449Z,1010.62
2023-05-20T10:02:23.727Z,1010.60
2023-05-20T10:03:25.023Z,1010.55
2023-05-20T10:04:23.994Z,1010.47
2023-05-20T10:05:24.196Z,1010.50
2023-05-20T10:06:24.398Z,1010.49
2023-05-20T10:07:40.730Z,1010.42
2023-05-20T10:08:26.768Z,1010.40
2023-05-20T10:09:26.398Z,1010.32
2023-05-20T10:10:25.030Z,1010.29
2023-05-20T10:11:25.900Z,1010.36
2023-05-20T10:12:25.939Z,1010.27
2023-05-20T10:13:25.579Z,1010.12
2023-05-20T10:14:26.093Z,1010.18
2023-05-20T10:15:27.443Z,1010.06
2023-05-20T10:16:26.133Z,1010.03
2023-05-20T10:17:26.304Z,1009.93
2023-05-20T10:18:27.452Z,1009.87
2023-05-20T10:19:27.163Z,1009.89
2023-05-20T10:20:27.404Z,1009.84
2023-05-20T10:21:27.947Z,1009.80
2023-05-20T10:22:27.207Z,1009.77
2023-05-20T10:23:27.348Z,1009.75
2023-05-20T10:24:27.998Z,1009.70
2023-05-20T10:25:28.492Z,1009.71
2023-05-20T10:26:28.269Z,1009.61
2023-05-20T10:27:27.958Z,1009.61
2023-05-20T10:28:29.408Z,1009.48
2023-05-20T10:29:28.312Z,1009.40
2023-05-20T10:30:28.480Z,1009.43
2023-05-20T10:31:28.625Z,1009.28
2023-05-20T10:32:28.863Z,1009.30
2023-05-20T10:33:28.996Z,1009.25
2023-05-20T10:34:29.062Z,1009.13
2023-05-20T10:35:29.201Z,1009.15
2023-05-20T10:36:29.385Z,1009.01
2023-05-20T10:37:30.475Z,1009.06
2023-05-20T10:38:29.778Z,1009.01
2023-05-20T10:39:29.981Z,1008.97
2023-05-20T10:40:30.070Z,1008.96
2023-05-20T10:41:30.253Z,1008.96
2023-05-20T10:42:31.418Z,1008.94
2023-05-20T10:43:30.955Z,1008.81
2023-05-20T10:44:31.004Z,1008.91
2023-05-20T10:45:30.920Z,1008.90
2023-05-20T10:46:36.574Z,1008.81
2023-05-20T10:47:34.005Z,1008.95
2023-05-20T10:48:32.005Z,1008.95
2023-05-20T10:49:31.627Z,1008.97
2023-05-20T10:50:31.950Z,1009.02
2023-05-20T10:51:32.917Z,1008.98
2023-05-20T10:52:33.913Z,1009.00
2023-05-20T10:53:34.253Z,1009.04
2023-05-20T10:54:33.628Z,1009.00
2023-05-20T10:55:33.774Z,1009.03
2023-05-20T10:56:34.453Z,1008.98
2023-05-20T10:57:34.300Z,1009.08
2023-05-20T10:58:33.333Z,1009.08
2023-05-20T10:59:34.420Z,1009.19
2023-05-20T11:00:33.836Z,1009.11
2023-05-20T11:01:34.016Z,1009.14
2023-05-20T11:02:34.328Z,1009.15
2023-05-20T11:03:34.314Z,1009.20
2023-05-20T11:04:35.916Z,1009.15
2023-05-20T11:05:35.457Z,1009.25
2023-05-20T11:06:34.812Z,1009.26
2023-05-20T11:07:35.027Z,1009.24
2023-05-20T11:08:35.233Z,1009.24
2023-05-20T11:09:35.925Z,1009.22
2023-05-20T11:10:35.805Z,1009.28
2023-05-20T11:11:35.981Z,1009.18
2023-05-20T11:12:35.943Z,1009.18
2023-05-20T11:13:36.926Z,1009.14
2023-05-20T11:14:36.253Z,1009.20
2023-05-20T11:15:36.498Z,1009.17
2023-05-20T11:16:36.669Z,1009.18
2023-05-20T11:17:36.912Z,1009.17
2023-05-20T11:18:36.996Z,1009.12
2023-05-20T11:19:37.923Z,1009.18
2023-05-20T11:20:37.367Z,1009.11
2023-05-20T11:21:38.423Z,1009.14
2023-05-20T11:22:37.732Z,1009.19
2023-05-20T11:23:40.623Z,1009.13
2023-05-20T11:24:39.937Z,1009.11
2023-05-20T11:25:38.511Z,1009.07
2023-05-20T11:26:38.962Z,1009.04
2023-05-20T11:27:38.490Z,1009.09
2023-05-20T11:28:38.642Z,1009.02
2023-05-20T11:29:38.858Z,1009.04
2023-05-20T11:30:39.111Z,1008.96
2023-05-20T11:31:39.628Z,1008.98
2023-05-20T11:32:40.966Z,1008.97
2023-05-20T11:33:39.533Z,1008.95
2023-05-20T11:34:39.749Z,1008.95
2023-05-20T11:35:39.932Z,1008.91
2023-05-20T11:36:40.923Z,1008.91
2023-05-20T11:37:40.930Z,1008.90
2023-05-20T11:38:40.478Z,1008.94
2023-05-20T11:39:40.719Z,1008.90
2023-05-20T11:40:49.610Z,1008.84
2023-05-20T11:41:43.089Z,1008.87
2023-05-20T11:42:41.968Z,1008.87
2023-05-20T11:43:41.406Z,1008.80
2023-05-20T11:44:42.463Z,1008.87
2023-05-20T11:45:42.448Z,1008.85
2023-05-20T11:46:42.051Z,1008.87
2023-05-20T11:47:43.040Z,1008.92
2023-05-20T11:48:42.322Z,1008.80
2023-05-20T11:49:42.495Z,1008.87
2023-05-20T11:50:42.656Z,1008.78
2023-05-20T11:51:42.849Z,1008.75
2023-05-20T11:52:44.440Z,1008.70
2023-05-20T11:53:43.200Z,1008.79
2023-05-20T11:54:43.404Z,1008.63
2023-05-20T11:55:44.435Z,1008.72
2023-05-20T11:56:43.703Z,1008.61
2023-05-20T11:57:43.901Z,1008.69
2023-05-20T11:58:44.073Z,1008.74
2023-05-20T12:00:17.656Z,1008.69
2023-05-20T12:00:52.862Z,1008.69
2023-05-20T12:01:46.616Z,1008.78
2023-05-20T12:02:47.025Z,1008.77
2023-05-20T12:03:45.623Z,1008.82
2023-05-20T12:04:46.070Z,1008.86
2023-05-20T12:05:46.479Z,1008.88
2023-05-20T12:06:45.532Z,1008.87
2023-05-20T12:07:45.626Z,1008.95